createdAt,value
2023-05-21T00:03:30.934Z,15.50
2023-05-21T00:08:34.215Z,15.40
2023-05-21T00:13:36.093Z,15.40
2023-05-21T00:18:39.492Z,15.50
2023-05-21T00:23:42.791Z,15.60
2023-05-21T00:28:44.609Z,15.40
2023-05-21T00:33:46.474Z,15.30
2023-05-21T00:38:48.416Z,15.20
2023-05-21T00:43:50.326Z,15.20
2023-05-21T00:48:52.808Z,15.20
2023-05-21T00:53:54.817Z,15.40
2023-05-21T00:58:57.818Z,15.20
2023-05-21T01:04:01.818Z,15.20
2023-05-21T01:09:06.501Z,15.10
2023-05-21T01:14:11.154Z,15.00
2023-05-21T01:19:17.174Z,15.10
2023-05-21T01:24:19.569Z,15.10
2023-05-21T01:29:21.805Z,15.20
2023-05-21T01:34:28.565Z,15.10
2023-05-21T01:39:38.937Z,14.90
2023-05-21T01:44:41.285Z,14.90
2023-05-21T01:49:43.477Z,14.80
2023-05-21T01:54:45.183Z,15.00
2023-05-21T01:59:47.896Z,15.00
2023-05-21T02:04:50.157Z,14.90
2023-05-21T02:09:52.161Z,14.90
2023-05-21T02:14:54.647Z,14.60
2023-05-21T02:19:56.444Z,14.60
2023-05-21T02:24:59.279Z,14.70
2023-05-21T02:30:05.828Z,14.70
2023-05-21T02:35:08.828Z,14.70
2023-05-21T02:40:11.236Z,14.70
2023-05-21T02:45:13.791Z,14.60
2023-05-21T02:50:15.575Z,14.60
2023-05-21T03:00:19.566Z,14.40
2023-05-21T03:05:21.577Z,14.40
2023-05-21T03:10:26.401Z,14.40
2023-05-21T03:15:33.334Z,14.40
2023-05-21T03:20:35.134Z,14.30
2023-05-21T03:25:37.665Z,14.40
2023-05-21T03:30:39.669Z,14.30
2023-05-21T03:35:41.413Z,14.30
2023-05-21T03:40:43.813Z,14.30
2023-05-21T03:45:45.629Z,14.30
2023-05-21T03:50:47.438Z,14.30
2023-05-21T03:55:55.410Z,14.30
2023-05-21T04:00:57.653Z,14.20
2023-05-21T04:05:59.459Z,14.20
2023-05-21T04:11:01.266Z,14.20
2023-05-21T04:16:03.224Z,14.20
2023-05-21T04:21:05.215Z,14.30
2023-05-21T04:26:07.764Z,14.30
2023-05-21T04:31:09.659Z,14.20
2023-05-21T04:36:12.355Z,14.40
2023-05-21T04:41:15.104Z,14.30
2023-05-21T04:46:16.876Z,14.40
2023-05-21T04:51:19.232Z,14.50
2023-05-21T04:56:26.559Z,14.40
2023-05-21T05:01:29.853Z,14.50
2023-05-21T05:06:31.820Z,14.60
2023-05-21T05:11:33.592Z,14.70
2023-05-21T05:16:35.713Z,14.70
2023-05-21T05:21:37.883Z,14.80
2023-05-21T05:26:39.701Z,15.00
2023-05-21T05:31:41.501Z,15.20
2023-05-21T05:36:43.385Z,15.20
2023-05-21T05:41:45.160Z,15.40
2023-05-21T05:46:47.365Z,15.50
2023-05-21T05:51:49.096Z,15.20
2023-05-21T05:56:51.202Z,15.20
2023-05-21T06:01:53.115Z,15.50
2023-05-21T06:06:55.241Z,15.70
2023-05-21T06:11:57.108Z,15.90
2023-05-21T06:16:58.951Z,16.10
2023-05-21T06:22:00.897Z,16.30
2023-05-21T06:27:04.059Z,16.50
2023-05-21T06:32:06.655Z,16.50
2023-05-21T06:37:08.426Z,16.80
2023-05-21T06:42:10.240Z,16.90
2023-05-21T06:47:12.119Z,17.00
2023-05-21T06:52:13.896Z,17.10
2023-05-21T06:57:16.493Z,17.10
2023-05-21T07:02:18.314Z,17.30
2023-05-21T07:07:20.130Z,17.50
2023-05-21T07:12:21.872Z,17.60
2023-05-21T07:17:23.869Z,17.60
2023-05-21T07:22:27.945Z,17.80
2023-05-21T07:27:30.265Z,17.90
2023-05-21T07:32:32.266Z,18.10
2023-05-21T07:37:34.168Z,18.20
2023-05-21T07:42:36.055Z,18.20
2023-05-21T07:47:37.929Z,18.20
2023-05-21T07:52:39.735Z,18.50
2023-05-21T07:57:41.848Z,18.60
2023-05-21T08:02:44.009Z,18.80
2023-05-21T08:07:46.333Z,18.80
2023-05-21T08:12:48.053Z,19.60
2023-05-21T08:17:49.924Z,19.50
2023-05-21T08:22:52.046Z,19.80
2023-05-21T08:27:54.220Z,20.10
2023-05-21T08:32:56.165Z,20.50
2023-05-21T08:37:58.737Z,20.90
2023-05-21T08:43:01.669Z,21.20
2023-05-21T08:48:04.650Z,21.30
2023-05-21T08:53:16.073Z,21.40
2023-05-21T08:58:31.798Z,21.60
2023-05-21T09:03:39.371Z,22.10
2023-05-21T09:08:48.566Z,22.50
2023-05-21T09:13:52.516Z,22.70
2023-05-21T09:18:54.687Z,22.80
2023-05-21T09:23:58.307Z,23.30
2023-05-21T09:29:03.813Z,23.40
2023-05-21T09:34:05.624Z,23.30
2023-05-21T09:39:07.751Z,23.30
2023-05-21T09:44:11.330Z,22.90
2023-05-21T09:49:27.990Z,22.80
2023-05-21T09:54:34.939Z,21.80
2023-05-21T09:59:40.839Z,22.70
2023-05-21T10:04:47.554Z,23.10
2023-05-21T10:09:50.025Z,23.30
2023-05-21T10:14:59.709Z,23.40
2023-05-21T10:20:02.949Z,23.10
2023-05-21T10:25:06.999Z,23.10
2023-05-21T10:30:10.142Z,23.40
2023-05-21T10:35:12.955Z,23.40
2023-05-21T10:40:18.156Z,24.00
2023-05-21T10:46:02.204Z,24.90
2023-05-21T10:51:28.331Z,25.10
2023-05-21T10:56:46.496Z,25.90
2023-05-21T11:01:53.147Z,26.50
2023-05-21T11:06:56.537Z,26.80
2023-05-21T11:12:01.371Z,28.00
2023-05-21T11:17:13.940Z,27.10
2023-05-21T11:22:23.064Z,27.20
2023-05-21T11:27:43.445Z,27.40
2023-05-21T11:33:11.355Z,29.30
2023-05-21T11:38:13.265Z,28.60
2023-05-21T11:43:15.116Z,28.40
2023-05-21T11:48:17.652Z,27.70
2023-05-21T11:53:19.724Z,27.00
2023-05-21T11:58:25.245Z,26.70
2023-05-21T12:03:27.536Z,26.50
2023-05-21T12:08:30.564Z,26.50
2023-05-21T12:13:32.889Z,26.90
2023-05-21T12:18:36.262Z,25.80
2023-05-21T12:23:38.216Z,27.00
2023-05-21T12:33:47.401Z,27.40
2023-05-21T12:38:50.295Z,27.20
2023-05-21T12:43:52.233Z,27.40
2023-05-21T12:48:58.386Z,27.20
2023-05-21T12:54:02.278Z,27.20
2023-05-21T12:59:04.064Z,27.50
2023-05-21T13:04:07.954Z,27.40
2023-05-21T13:09:10.242Z,26.60
2023-05-21T13:14:12.017Z,26.80
2023-05-21T13:19:15.351Z,27.30
2023-05-21T13:24:17.269Z,27.30
2023-05-21T13:29:19.124Z,27.30
2023-05-21T13:34:20.940Z,27.20
2023-05-21T13:39:26.773Z,27.20
2023-05-21T13:44:28.927Z,27.40
2023-05-21T13:54:37.089Z,27.10
2023-05-21T13:59:41.746Z,26.90
2023-05-21T14:04:43.597Z,26.70
2023-05-21T14:09:46.100Z,26.60
2023-05-21T14:14:49.875Z,27.10
2023-05-21T14:19:51.884Z,27.10
2023-05-21T14:24:53.729Z,26.70
2023-05-21T14:29:55.665Z,26.70
2023-05-21T14:34:57.705Z,26.80
2023-05-21T14:39:59.650Z,26.70
2023-05-21T14:45:17.058Z,26.50
2023-05-21T14:50:20.616Z,26.50
2023-05-21T14:55:22.801Z,26.30
2023-05-21T15:00:24.897Z,25.80
2023-05-21T15:05:28.309Z,25.70
2023-05-21T15:10:30.401Z,25.70
2023-05-21T15:15:32.548Z,25.70
2023-05-21T15:20:34.625Z,25.90
2023-05-21T15:25:36.787Z,25.90
2023-05-21T15:30:41.744Z,26.20
2023-05-21T15:35:44.512Z,26.40
2023-05-21T15:40:47.680Z,26.40
2023-05-21T15:45:49.421Z,28.20
2023-05-21T15:50:51.275Z,26.50
2023-05-21T15:55:53.043Z,26.50
2023-05-21T16:00:55.242Z,26.20
2023-05-21T16:05:57.046Z,26.00
2023-05-21T16:11:01.140Z,25.90
2023-05-21T16:16:02.906Z,25.70
2023-05-21T16:21:05.187Z,25.40
2023-05-21T16:26:08.125Z,25.10
2023-05-21T16:31:10.894Z,25.00
2023-05-21T16:36:13.166Z,24.90
2023-05-21T16:41:15.334Z,24.90
2023-05-21T16:46:17.225Z,24.70
2023-05-21T16:51:19.123Z,24.50
2023-05-21T16:56:21.917Z,24.20
2023-05-21T17:01:23.928Z,24.00
2023-05-21T17:06:25.860Z,23.70
2023-05-21T17:11:28.159Z,23.30
2023-05-21T17:16:30.008Z,23.20
2023-05-21T17:21:32.012Z,23.10
2023-05-21T17:26:33.995Z,23.00
2023-05-21T17:31:36.585Z,22.90
2023-05-21T17:36:41.568Z,22.40
2023-05-21T17:41:43.439Z,22.40
2023-05-21T17:46:46.435Z,22.20
2023-05-21T17:51:48.590Z,22.00
2023-05-21T17:56:51.124Z,22.00
2023-05-21T18:01:53.128Z,21.80
2023-05-21T18:11:58.355Z,21.20
2023-05-21T18:17:01.308Z,21.20
2023-05-21T18:22:04.418Z,21.00
2023-05-21T18:27:07.059Z,20.90
2023-05-21T18:32:10.945Z,20.70
2023-05-21T18:37:12.756Z,20.40
2023-05-21T18:42:14.956Z,20.40
2023-05-21T18:47:16.863Z,20.30
2023-05-21T18:52:18.750Z,20.10
2023-05-21T18:57:20.554Z,20.00
2023-05-21T19:02:22.443Z,19.80
2023-05-21T19:07:24.324Z,19.50
2023-05-21T19:12:26.475Z,19.50
2023-05-21T19:17:28.368Z,19.30
2023-05-21T19:22:30.229Z,19.20
2023-05-21T19:27:32.118Z,19.10
2023-05-21T19:32:33.941Z,19.10
2023-05-21T19:37:35.717Z,18.90
2023-05-21T19:42:37.882Z,18.60
2023-05-21T19:47:41.119Z,18.60
2023-05-21T19:52:43.127Z,18.40
2023-05-21T19:57:45.239Z,18.40
2023-05-21T20:02:47.244Z,18.30
2023-05-21T20:07:49.043Z,18.30
2023-05-21T20:12:50.812Z,18.10
2023-05-21T20:17:54.115Z,18.00
2023-05-21T20:23:03.260Z,18.00
2023-05-21T20:28:05.604Z,17.80
2023-05-21T20:33:07.418Z,17.70
2023-05-21T20:38:09.244Z,17.60
2023-05-21T20:43:14.972Z,17.50
2023-05-21T20:48:17.100Z,17.40
2023-05-21T20:53:19.480Z,17.40
2023-05-21T20:58:23.812Z,17.30
2023-05-21T21:03:25.640Z,17.30
2023-05-21T21:08:27.824Z,17.20
2023-05-21T21:18:31.815Z,17.00
2023-05-21T21:33:38.320Z,16.80
2023-05-21T21:38:40.180Z,16.80
2023-05-21T21:43:41.955Z,16.80
2023-05-21T21:48:43.826Z,16.70
2023-05-21T21:53:45.618Z,16.60
2023-05-21T21:58:47.506Z,16.50
2023-05-21T22:03:49.246Z,16.50
2023-05-21T22:13:53.871Z,16.30
2023-05-21T22:24:00.348Z,16.10
2023-05-21T22:29:02.172Z,16.00
2023-05-21T22:39:06.202Z,16.00
2023-05-21T22:44:08.078Z,15.90
2023-05-21T22:54:12.513Z,16.00
2023-05-21T22:59:14.250Z,15.80
2023-05-21T23:04:16.512Z,15.80
2023-05-21T23:09:18.353Z,15.80
2023-05-21T23:14:20.364Z,15.80
2023-05-21T23:19:22.209Z,15.80
2023-05-21T23:24:24.107Z,15.80
2023-05-21T23:29:25.890Z,15.50
2023-05-21T23:34:27.765Z,15.50
2023-05-21T23:39:29.818Z,15.50
2023-05-21T23:44:31.639Z,15.50
2023-05-21T23:49:33.592Z,15.30
2023-05-21T23:54:35.474Z,15.30
2023-05-21T23:59:37.422Z,15.30
